sensor_id;sensor_type;location;lat;lon;timestamp;temperature;humidity
20376;DHT22;10347;51.828;6.466;2023-07-28T00:01:26;19.80;99.90
20376;DHT22;10347;51.828;6.466;2023-07-28T00:03:51;19.80;99.90
20376;DHT22;10347;51.828;6.466;2023-07-28T00:06:17;19.80;99.90
20376;DHT22;10347;51.828;6.466;2023-07-28T00:08:42;19.80;99.90
20376;DHT22;10347;51.828;6.466;2023-07-28T00:11:13;19.80;99.90
20376;DHT22;10347;51.828;6.466;2023-07-28T00:13:39;19.80;99.90
20376;DHT22;10347;51.828;6.466;2023-07-28T00:16:05;19.80;99.90
20376;DHT22;10347;51.828;6.466;2023-07-28T00:18:31;19.80;99.90
20376;DHT22;10347;51.828;6.466;2023-07-28T00:20:56;19.80;99.90
20376;DHT22;10347;51.828;6.466;2023-07-28T00:23:22;19.80;99.90
20376;DHT22;10347;51.828;6.466;2023-07-28T00:25:48;19.80;99.90
20376;DHT22;10347;51.828;6.466;2023-07-28T00:28:14;19.80;99.90
20376;DHT22;10347;51.828;6.466;2023-07-28T00:30:39;19.80;99.90
20376;DHT22;10347;51.828;6.466;2023-07-28T00:33:05;19.80;99.90
20376;DHT22;10347;51.828;6.466;2023-07-28T00:35:30;19.80;99.90
20376;DHT22;10347;51.828;6.466;2023-07-28T00:37:56;19.90;99.90
20376;DHT22;10347;51.828;6.466;2023-07-28T00:40:22;19.90;99.90
20376;DHT22;10347;51.828;6.466;2023-07-28T00:42:48;19.90;99.90
20376;DHT22;10347;51.828;6.466;2023-07-28T00:45:14;19.90;99.90
20376;DHT22;10347;51.828;6.466;2023-07-28T00:47:40;19.90;99.90
20376;DHT22;10347;51.828;6.466;2023-07-28T00:50:08;19.90;99.90
20376;DHT22;10347;51.828;6.466;2023-07-28T00:52:34;19.90;99.90
20376;DHT22;10347;51.828;6.466;2023-07-28T00:55:00;19.90;99.90
20376;DHT22;10347;51.828;6.466;2023-07-28T00:57:26;19.90;99.90
20376;DHT22;10347;51.828;6.466;2023-07-28T00:59:51;19.90;99.90
20376;DHT22;10347;51.828;6.466;2023-07-28T01:02:19;19.90;99.90
20376;DHT22;10347;51.828;6.466;2023-07-28T01:04:45;19.90;99.90
20376;DHT22;10347;51.828;6.466;2023-07-28T01:07:17;19.90;99.90
20376;DHT22;10347;51.828;6.466;2023-07-28T01:09:54;19.90;99.90
20376;DHT22;10347;51.828;6.466;2023-07-28T01:12:23;19.90;99.90
20376;DHT22;10347;51.828;6.466;2023-07-28T01:14:49;19.90;99.90
20376;DHT22;10347;51.828;6.466;2023-07-28T01:17:15;19.90;99.90
20376;DHT22;10347;51.828;6.466;2023-07-28T01:19:41;20.00;99.90
20376;DHT22;10347;51.828;6.466;2023-07-28T01:25:08;20.00;99.90
20376;DHT22;10347;51.828;6.466;2023-07-28T01:27:36;20.00;99.90
20376;DHT22;10347;51.828;6.466;2023-07-28T01:30:03;20.00;99.90
20376;DHT22;10347;51.828;6.466;2023-07-28T01:32:28;19.90;99.90
20376;DHT22;10347;51.828;6.466;2023-07-28T01:34:54;19.90;99.90
20376;DHT22;10347;51.828;6.466;2023-07-28T01:37:19;19.90;99.90
20376;DHT22;10347;51.828;6.466;2023-07-28T01:39:45;19.90;99.90
20376;DHT22;10347;51.828;6.466;2023-07-28T01:42:11;19.90;99.90
20376;DHT22;10347;51.828;6.466;2023-07-28T01:44:36;19.90;99.90
20376;DHT22;10347;51.828;6.466;2023-07-28T01:47:02;19.90;99.90
20376;DHT22;10347;51.828;6.466;2023-07-28T01:49:27;19.90;99.90
20376;DHT22;10347;51.828;6.466;2023-07-28T01:51:53;19.90;99.90
20376;DHT22;10347;51.828;6.466;2023-07-28T01:54:18;19.90;99.90
20376;DHT22;10347;51.828;6.466;2023-07-28T01:56:44;20.00;99.90
20376;DHT22;10347;51.828;6.466;2023-07-28T01:59:09;19.90;99.90
20376;DHT22;10347;51.828;6.466;2023-07-28T02:01:35;19.90;99.90
20376;DHT22;10347;51.828;6.466;2023-07-28T02:04:01;20.00;99.90
20376;DHT22;10347;51.828;6.466;2023-07-28T02:06:26;19.90;99.90
20376;DHT22;10347;51.828;6.466;2023-07-28T02:08:53;19.90;99.90
20376;DHT22;10347;51.828;6.466;2023-07-28T02:11:18;19.90;99.90
20376;DHT22;10347;51.828;6.466;2023-07-28T02:13:44;19.90;99.90
20376;DHT22;10347;51.828;6.466;2023-07-28T02:16:09;19.90;99.90
20376;DHT22;10347;51.828;6.466;2023-07-28T02:18:35;19.90;99.90
20376;DHT22;10347;51.828;6.466;2023-07-28T02:21:00;19.90;99.90
20376;DHT22;10347;51.828;6.466;2023-07-28T02:23:26;19.90;99.90
20376;DHT22;10347;51.828;6.466;2023-07-28T02:25:51;19.90;99.90
20376;DHT22;10347;51.828;6.466;2023-07-28T02:28:17;19.90;99.90
20376;DHT22;10347;51.828;6.466;2023-07-28T02:30:42;19.90;99.90
20376;DHT22;10347;51.828;6.466;2023-07-28T02:33:08;19.90;99.90
20376;DHT22;10347;51.828;6.466;2023-07-28T02:35:33;19.90;99.90
20376;DHT22;10347;51.828;6.466;2023-07-28T02:38:00;19.90;99.90
20376;DHT22;10347;51.828;6.466;2023-07-28T02:40:25;19.90;99.90
20376;DHT22;10347;51.828;6.466;2023-07-28T02:42:51;19.90;99.90
20376;DHT22;10347;51.828;6.466;2023-07-28T02:45:19;20.00;99.90
20376;DHT22;10347;51.828;6.466;2023-07-28T02:47:45;19.90;99.90
20376;DHT22;10347;51.828;6.466;2023-07-28T02:50:10;20.00;99.90
20376;DHT22;10347;51.828;6.466;2023-07-28T02:52:36;19.90;99.90
20376;DHT22;10347;51.828;6.466;2023-07-28T02:55:01;20.00;99.90
20376;DHT22;10347;51.828;6.466;2023-07-28T02:57:27;19.90;99.90
20376;DHT22;10347;51.828;6.466;2023-07-28T02:59:52;19.90;99.90
20376;DHT22;10347;51.828;6.466;2023-07-28T03:02:18;19.90;99.90
20376;DHT22;10347;51.828;6.466;2023-07-28T03:04:44;20.00;99.90
20376;DHT22;10347;51.828;6.466;2023-07-28T03:07:09;19.90;99.90
20376;DHT22;10347;51.828;6.466;2023-07-28T03:09:35;19.90;99.90
20376;DHT22;10347;51.828;6.466;2023-07-28T03:12:00;20.00;99.90
20376;DHT22;10347;51.828;6.466;2023-07-28T03:14:26;20.00;99.90
20376;DHT22;10347;51.828;6.466;2023-07-28T03:16:51;20.00;99.90
20376;DHT22;10347;51.828;6.466;2023-07-28T03:19:17;20.00;99.90
20376;DHT22;10347;51.828;6.466;2023-07-28T03:21:43;20.00;99.90
20376;DHT22;10347;51.828;6.466;2023-07-28T03:24:08;20.00;99.90
20376;DHT22;10347;51.828;6.466;2023-07-28T03:26:34;20.00;99.90
20376;DHT22;10347;51.828;6.466;2023-07-28T03:28:59;20.00;99.90
20376;DHT22;10347;51.828;6.466;2023-07-28T03:31:25;20.00;99.90
20376;DHT22;10347;51.828;6.466;2023-07-28T03:33:50;20.00;99.90
20376;DHT22;10347;51.828;6.466;2023-07-28T03:36:16;20.00;99.90
20376;DHT22;10347;51.828;6.466;2023-07-28T03:38:41;19.90;99.90
20376;DHT22;10347;51.828;6.466;2023-07-28T03:41:07;20.00;99.90
20376;DHT22;10347;51.828;6.466;2023-07-28T03:43:33;20.00;99.90
20376;DHT22;10347;51.828;6.466;2023-07-28T03:45:59;20.00;99.90
20376;DHT22;10347;51.828;6.466;2023-07-28T03:48:25;19.90;99.90
20376;DHT22;10347;51.828;6.466;2023-07-28T03:50:50;20.00;99.90
20376;DHT22;10347;51.828;6.466;2023-07-28T03:53:16;20.00;99.90
20376;DHT22;10347;51.828;6.466;2023-07-28T03:55:41;20.00;99.90
20376;DHT22;10347;51.828;6.466;2023-07-28T03:58:07;20.00;99.90
20376;DHT22;10347;51.828;6.466;2023-07-28T04:00:33;20.00;99.90
20376;DHT22;10347;51.828;6.466;2023-07-28T04:02:58;20.10;99.90
20376;DHT22;10347;51.828;6.466;2023-07-28T04:05:24;20.00;99.90
20376;DHT22;10347;51.828;6.466;2023-07-28T04:07:49;20.00;99.90
20376;DHT22;10347;51.828;6.466;2023-07-28T04:10:15;20.00;99.90
20376;DHT22;10347;51.828;6.466;2023-07-28T04:12:40;20.00;99.90
20376;DHT22;10347;51.828;6.466;2023-07-28T04:15:06;20.00;99.90
20376;DHT22;10347;51.828;6.466;2023-07-28T04:17:32;20.00;99.90
20376;DHT22;10347;51.828;6.466;2023-07-28T04:19:58;20.00;99.90
20376;DHT22;10347;51.828;6.466;2023-07-28T04:22:23;19.90;99.90
20376;DHT22;10347;51.828;6.466;2023-07-28T04:24:49;20.00;99.90
20376;DHT22;10347;51.828;6.466;2023-07-28T04:27:14;20.00;99.90
20376;DHT22;10347;51.828;6.466;2023-07-28T04:29:40;20.00;99.90
20376;DHT22;10347;51.828;6.466;2023-07-28T04:32:06;20.10;99.90
20376;DHT22;10347;51.828;6.466;2023-07-28T04:34:35;20.00;99.90
20376;DHT22;10347;51.828;6.466;2023-07-28T04:37:00;20.00;99.90
20376;DHT22;10347;51.828;6.466;2023-07-28T04:39:26;20.00;99.90
20376;DHT22;10347;51.828;6.466;2023-07-28T04:41:51;20.00;99.90
20376;DHT22;10347;51.828;6.466;2023-07-28T04:44:17;20.00;99.90
20376;DHT22;10347;51.828;6.466;2023-07-28T04:46:43;20.00;99.90
20376;DHT22;10347;51.828;6.466;2023-07-28T04:49:09;20.00;99.90
20376;DHT22;10347;51.828;6.466;2023-07-28T04:51:34;20.00;99.90
20376;DHT22;10347;51.828;6.466;2023-07-28T04:54:00;20.00;99.90
20376;DHT22;10347;51.828;6.466;2023-07-28T04:56:25;20.00;99.90
20376;DHT22;10347;51.828;6.466;2023-07-28T04:58:51;20.00;99.90
20376;DHT22;10347;51.828;6.466;2023-07-28T05:01:16;20.00;99.90
20376;DHT22;10347;51.828;6.466;2023-07-28T05:03:42;20.00;99.90
20376;DHT22;10347;51.828;6.466;2023-07-28T05:06:07;20.00;99.90
20376;DHT22;10347;51.828;6.466;2023-07-28T05:08:33;20.00;99.90
20376;DHT22;10347;51.828;6.466;2023-07-28T05:10:58;20.10;99.90
20376;DHT22;10347;51.828;6.466;2023-07-28T05:13:24;20.00;99.90
20376;DHT22;10347;51.828;6.466;2023-07-28T05:15:49;20.00;99.90
20376;DHT22;10347;51.828;6.466;2023-07-28T05:18:15;20.00;99.90
20376;DHT22;10347;51.828;6.466;2023-07-28T05:20:40;20.10;99.90
20376;DHT22;10347;51.828;6.466;2023-07-28T05:23:06;20.00;99.90
20376;DHT22;10347;51.828;6.466;2023-07-28T05:25:31;20.00;99.90
20376;DHT22;10347;51.828;6.466;2023-07-28T05:27:57;20.00;99.90
20376;DHT22;10347;51.828;6.466;2023-07-28T05:30:23;20.10;99.90
20376;DHT22;10347;51.828;6.466;2023-07-28T05:32:48;20.10;99.90
20376;DHT22;10347;51.828;6.466;2023-07-28T05:35:15;20.10;99.90
20376;DHT22;10347;51.828;6.466;2023-07-28T05:37:41;20.10;99.90
20376;DHT22;10347;51.828;6.466;2023-07-28T05:40:07;20.10;99.90
20376;DHT22;10347;51.828;6.466;2023-07-28T05:42:33;20.10;99.90
20376;DHT22;10347;51.828;6.466;2023-07-28T05:44:59;20.10;99.90
20376;DHT22;10347;51.828;6.466;2023-07-28T05:47:24;20.10;99.90
20376;DHT22;10347;51.828;6.466;2023-07-28T05:49:51;20.00;99.90
20376;DHT22;10347;51.828;6.466;2023-07-28T05:52:19;20.10;99.90
20376;DHT22;10347;51.828;6.466;2023-07-28T05:54:44;20.10;99.90
20376;DHT22;10347;51.828;6.466;2023-07-28T05:57:10;20.10;99.90
20376;DHT22;10347;51.828;6.466;2023-07-28T05:59:36;20.10;99.90
20376;DHT22;10347;51.828;6.466;2023-07-28T06:02:02;20.10;99.90
20376;DHT22;10347;51.828;6.466;2023-07-28T06:04:27;20.10;99.90
20376;DHT22;10347;51.828;6.466;2023-07-28T06:07:11;20.10;99.90
20376;DHT22;10347;51.828;6.466;2023-07-28T06:09:36;20.10;99.90
20376;DHT22;10347;51.828;6.466;2023-07-28T06:12:03;20.10;99.90
20376;DHT22;10347;51.828;6.466;2023-07-28T06:14:29;20.20;99.90
20376;DHT22;10347;51.828;6.466;2023-07-28T06:16:54;20.10;99.90
20376;DHT22;10347;51.828;6.466;2023-07-28T06:19:20;20.10;99.90
20376;DHT22;10347;51.828;6.466;2023-07-28T06:21:50;20.10;99.90
20376;DHT22;10347;51.828;6.466;2023-07-28T06:24:16;20.10;99.90
20376;DHT22;10347;51.828;6.466;2023-07-28T06:26:42;20.10;99.90
20376;DHT22;10347;51.828;6.466;2023-07-28T06:29:07;20.10;99.90
20376;DHT22;10347;51.828;6.466;2023-07-28T06:31:33;20.10;99.90
20376;DHT22;10347;51.828;6.466;2023-07-28T06:33:58;20.10;99.90
20376;DHT22;10347;51.828;6.466;2023-07-28T06:36:24;20.10;99.90
20376;DHT22;10347;51.828;6.466;2023-07-28T06:38:51;20.10;99.90
20376;DHT22;10347;51.828;6.466;2023-07-28T06:41:18;20.10;99.90
20376;DHT22;10347;51.828;6.466;2023-07-28T06:43:43;20.10;99.90
20376;DHT22;10347;51.828;6.466;2023-07-28T06:46:09;20.10;99.90
20376;DHT22;10347;51.828;6.466;2023-07-28T06:48:34;20.10;99.90
20376;DHT22;10347;51.828;6.466;2023-07-28T06:51:00;20.10;99.90
20376;DHT22;10347;51.828;6.466;2023-07-28T06:53:26;20.20;99.90
20376;DHT22;10347;51.828;6.466;2023-07-28T06:55:52;20.20;99.90
20376;DHT22;10347;51.828;6.466;2023-07-28T06:58:17;20.20;99.90
20376;DHT22;10347;51.828;6.466;2023-07-28T07:00:43;20.20;99.90
20376;DHT22;10347;51.828;6.466;2023-07-28T07:03:09;20.20;99.90
20376;DHT22;10347;51.828;6.466;2023-07-28T07:05:35;20.20;99.90
20376;DHT22;10347;51.828;6.466;2023-07-28T07:08:00;20.20;99.90
20376;DHT22;10347;51.828;6.466;2023-07-28T07:10:27;20.20;99.90
20376;DHT22;10347;51.828;6.466;2023-07-28T07:12:52;20.30;99.90
20376;DHT22;10347;51.828;6.466;2023-07-28T07:15:18;20.30;99.90
20376;DHT22;10347;51.828;6.466;2023-07-28T07:17:43;20.30;99.90
20376;DHT22;10347;51.828;6.466;2023-07-28T07:20:09;20.30;99.90
20376;DHT22;10347;51.828;6.466;2023-07-28T07:22:35;20.20;99.90
20376;DHT22;10347;51.828;6.466;2023-07-28T07:25:02;20.30;99.90
20376;DHT22;10347;51.828;6.466;2023-07-28T07:27:29;20.30;99.90
20376;DHT22;10347;51.828;6.466;2023-07-28T07:29:54;20.30;99.90
20376;DHT22;10347;51.828;6.466;2023-07-28T07:32:20;20.40;99.90
20376;DHT22;10347;51.828;6.466;2023-07-28T07:34:45;20.40;99.90
20376;DHT22;10347;51.828;6.466;2023-07-28T07:37:11;20.40;99.90
20376;DHT22;10347;51.828;6.466;2023-07-28T07:39:37;20.40;99.90
20376;DHT22;10347;51.828;6.466;2023-07-28T07:42:02;20.40;99.90
20376;DHT22;10347;51.828;6.466;2023-07-28T07:44:28;20.40;99.90
20376;DHT22;10347;51.828;6.466;2023-07-28T07:46:54;20.50;99.90
20376;DHT22;10347;51.828;6.466;2023-07-28T07:49:20;20.40;99.90
20376;DHT22;10347;51.828;6.466;2023-07-28T07:51:45;20.40;99.90
20376;DHT22;10347;51.828;6.466;2023-07-28T07:54:11;20.50;99.90
20376;DHT22;10347;51.828;6.466;2023-07-28T07:56:41;20.50;99.90
20376;DHT22;10347;51.828;6.466;2023-07-28T07:59:07;20.50;99.90
20376;DHT22;10347;51.828;6.466;2023-07-28T08:01:32;20.50;99.90
20376;DHT22;10347;51.828;6.466;2023-07-28T08:03:58;20.50;99.90
20376;DHT22;10347;51.828;6.466;2023-07-28T08:06:23;20.60;99.90
20376;DHT22;10347;51.828;6.466;2023-07-28T08:08:49;20.60;99.90
20376;DHT22;10347;51.828;6.466;2023-07-28T08:11:16;20.70;99.90
20376;DHT22;10347;51.828;6.466;2023-07-28T08:13:41;20.60;99.90
20376;DHT22;10347;51.828;6.466;2023-07-28T08:16:07;20.70;99.90
20376;DHT22;10347;51.828;6.466;2023-07-28T08:18:33;20.80;99.90
20376;DHT22;10347;51.828;6.466;2023-07-28T08:20:59;20.70;99.90
20376;DHT22;10347;51.828;6.466;2023-07-28T08:23:25;20.80;99.90
20376;DHT22;10347;51.828;6.466;2023-07-28T08:25:50;20.80;99.90
20376;DHT22;10347;51.828;6.466;2023-07-28T08:28:16;20.80;99.90
20376;DHT22;10347;51.828;6.466;2023-07-28T08:30:41;20.90;99.90
20376;DHT22;10347;51.828;6.466;2023-07-28T08:33:07;20.90;99.90
20376;DHT22;10347;51.828;6.466;2023-07-28T08:35:32;20.90;99.90
20376;DHT22;10347;51.828;6.466;2023-07-28T08:37:58;21.00;99.90
20376;DHT22;10347;51.828;6.466;2023-07-28T08:40:23;21.00;99.90
20376;DHT22;10347;51.828;6.466;2023-07-28T08:42:51;21.00;99.90
20376;DHT22;10347;51.828;6.466;2023-07-28T08:45:17;21.10;99.90
20376;DHT22;10347;51.828;6.466;2023-07-28T08:47:44;21.10;99.90
20376;DHT22;10347;51.828;6.466;2023-07-28T08:50:09;21.10;99.90
20376;DHT22;10347;51.828;6.466;2023-07-28T08:52:35;21.10;99.90
20376;DHT22;10347;51.828;6.466;2023-07-28T08:55:01;21.20;99.90
20376;DHT22;10347;51.828;6.466;2023-07-28T08:57:27;21.20;99.90
20376;DHT22;10347;51.828;6.466;2023-07-28T08:59:53;21.20;99.90
20376;DHT22;10347;51.828;6.466;2023-07-28T09:02:19;21.20;99.90
20376;DHT22;10347;51.828;6.466;2023-07-28T09:04:46;21.30;99.90
20376;DHT22;10347;51.828;6.466;2023-07-28T09:07:12;21.30;99.90
20376;DHT22;10347;51.828;6.466;2023-07-28T09:09:39;21.40;99.90
20376;DHT22;10347;51.828;6.466;2023-07-28T09:12:06;21.40;99.90
20376;DHT22;10347;51.828;6.466;2023-07-28T09:14:35;21.40;99.90
20376;DHT22;10347;51.828;6.466;2023-07-28T09:17:20;21.40;99.90
20376;DHT22;10347;51.828;6.466;2023-07-28T09:19:53;21.40;99.90
20376;DHT22;10347;51.828;6.466;2023-07-28T09:22:20;21.50;99.90
20376;DHT22;10347;51.828;6.466;2023-07-28T09:24:46;21.50;99.90
20376;DHT22;10347;51.828;6.466;2023-07-28T09:27:20;21.50;99.90
20376;DHT22;10347;51.828;6.466;2023-07-28T09:29:51;21.60;99.90
20376;DHT22;10347;51.828;6.466;2023-07-28T09:32:30;21.60;99.90
20376;DHT22;10347;51.828;6.466;2023-07-28T09:35:15;21.60;99.90
20376;DHT22;10347;51.828;6.466;2023-07-28T09:37:43;21.60;99.90
20376;DHT22;10347;51.828;6.466;2023-07-28T09:40:12;21.70;99.90
20376;DHT22;10347;51.828;6.466;2023-07-28T09:42:42;21.70;99.90
20376;DHT22;10347;51.828;6.466;2023-07-28T09:45:09;21.80;99.90
20376;DHT22;10347;51.828;6.466;2023-07-28T09:47:37;21.90;99.90
20376;DHT22;10347;51.828;6.466;2023-07-28T09:50:05;22.00;99.90
20376;DHT22;10347;51.828;6.466;2023-07-28T09:52:36;22.00;99.90
20376;DHT22;10347;51.828;6.466;2023-07-28T09:55:07;22.10;99.90
20376;DHT22;10347;51.828;6.466;2023-07-28T09:57:53;22.10;99.90
20376;DHT22;10347;51.828;6.466;2023-07-28T10:00:21;22.20;99.90
20376;DHT22;10347;51.828;6.466;2023-07-28T10:02:48;22.30;99.90
20376;DHT22;10347;51.828;6.466;2023-07-28T10:05:14;22.30;99.90
20376;DHT22;10347;51.828;6.466;2023-07-28T10:07:41;22.40;99.90
20376;DHT22;10347;51.828;6.466;2023-07-28T10:10:09;22.40;99.90
20376;DHT22;10347;51.828;6.466;2023-07-28T10:12:52;22.40;99.90
20376;DHT22;10347;51.828;6.466;2023-07-28T10:15:19;22.50;99.90
20376;DHT22;10347;51.828;6.466;2023-07-28T10:17:51;22.40;99.90
20376;DHT22;10347;51.828;6.466;2023-07-28T10:23:06;22.60;99.90
20376;DHT22;10347;51.828;6.466;2023-07-28T10:25:37;22.70;99.90
20376;DHT22;10347;51.828;6.466;2023-07-28T10:28:07;22.70;99.90
20376;DHT22;10347;51.828;6.466;2023-07-28T10:30:53;22.80;99.90
20376;DHT22;10347;51.828;6.466;2023-07-28T10:33:44;22.90;99.90
20376;DHT22;10347;51.828;6.466;2023-07-28T10:36:33;23.00;99.90
20376;DHT22;10347;51.828;6.466;2023-07-28T10:39:12;23.10;99.90
20376;DHT22;10347;51.828;6.466;2023-07-28T10:41:38;23.20;99.90
20376;DHT22;10347;51.828;6.466;2023-07-28T10:44:04;23.20;99.90
20376;DHT22;10347;51.828;6.466;2023-07-28T10:46:31;23.30;99.90
20376;DHT22;10347;51.828;6.466;2023-07-28T10:49:04;23.30;99.90
20376;DHT22;10347;51.828;6.466;2023-07-28T10:51:30;23.30;99.90
20376;DHT22;10347;51.828;6.466;2023-07-28T10:53:59;23.30;99.90
20376;DHT22;10347;51.828;6.466;2023-07-28T10:56:25;23.30;99.90
20376;DHT22;10347;51.828;6.466;2023-07-28T10:58:58;23.40;99.90
20376;DHT22;10347;51.828;6.466;2023-07-28T11:01:34;23.30;99.90
20376;DHT22;10347;51.828;6.466;2023-07-28T11:04:16;23.40;99.90
20376;DHT22;10347;51.828;6.466;2023-07-28T11:06:47;23.50;99.90
20376;DHT22;10347;51.828;6.466;2023-07-28T11:09:14;23.50;99.90
20376;DHT22;10347;51.828;6.466;2023-07-28T11:11:41;23.60;99.90
20376;DHT22;10347;51.828;6.466;2023-07-28T11:14:08;23.60;99.90
20376;DHT22;10347;51.828;6.466;2023-07-28T11:16:36;23.60;99.90
20376;DHT22;10347;51.828;6.466;2023-07-28T11:19:02;23.70;99.90
20376;DHT22;10347;51.828;6.466;2023-07-28T11:21:29;23.60;99.90
20376;DHT22;10347;51.828;6.466;2023-07-28T11:23:54;23.70;99.90
20376;DHT22;10347;51.828;6.466;2023-07-28T11:26:22;23.70;99.90
20376;DHT22;10347;51.828;6.466;2023-07-28T11:28:48;23.70;99.90
20376;DHT22;10347;51.828;6.466;2023-07-28T11:31:14;23.60;99.90
20376;DHT22;10347;51.828;6.466;2023-07-28T11:33:41;23.70;99.90
20376;DHT22;10347;51.828;6.466;2023-07-28T11:36:06;23.70;99.90
20376;DHT22;10347;51.828;6.466;2023-07-28T11:38:33;23.60;99.90
20376;DHT22;10347;51.828;6.466;2023-07-28T11:41:00;23.70;99.90
20376;DHT22;10347;51.828;6.466;2023-07-28T11:43:27;23.70;99.90
20376;DHT22;10347;51.828;6.466;2023-07-28T11:45:53;23.70;99.90
20376;DHT22;10347;51.828;6.466;2023-07-28T11:48:18;23.70;99.90
20376;DHT22;10347;51.828;6.466;2023-07-28T11:50:44;23.80;99.90
20376;DHT22;10347;51.828;6.466;2023-07-28T11:53:10;23.70;99.90
20376;DHT22;10347;51.828;6.466;2023-07-28T11:55:38;23.80;99.90
20376;DHT22;10347;51.828;6.466;2023-07-28T11:58:07;23.80;99.90
20376;DHT22;10347;51.828;6.466;2023-07-28T12:00:35;23.80;99.90
20376;DHT22;10347;51.828;6.466;2023-07-28T12:03:11;23.80;99.90
20376;DHT22;10347;51.828;6.466;2023-07-28T12:05:58;23.80;99.90
20376;DHT22;10347;51.828;6.466;2023-07-28T12:08:36;23.90;99.90
20376;DHT22;10347;51.828;6.466;2023-07-28T12:11:02;24.00;99.90
20376;DHT22;10347;51.828;6.466;2023-07-28T12:13:27;24.00;99.90
20376;DHT22;10347;51.828;6.466;2023-07-28T12:15:54;24.00;99.90
20376;DHT22;10347;51.828;6.466;2023-07-28T12:18:20;24.10;99.90
20376;DHT22;10347;51.828;6.466;2023-07-28T12:20:47;24.10;99.90
20376;DHT22;10347;51.828;6.466;2023-07-28T12:23:14;24.10;99.90
20376;DHT22;10347;51.828;6.466;2023-07-28T12:25:41;24.10;99.90
20376;DHT22;10347;51.828;6.466;2023-07-28T12:28:07;24.20;99.90
20376;DHT22;10347;51.828;6.466;2023-07-28T12:30:33;24.20;99.90
20376;DHT22;10347;51.828;6.466;2023-07-28T12:32:59;24.20;99.90
20376;DHT22;10347;51.828;6.466;2023-07-28T12:35:25;24.30;99.90
20376;DHT22;10347;51.828;6.466;2023-07-28T12:37:56;24.40;99.90
20376;DHT22;10347;51.828;6.466;2023-07-28T12:40:22;24.40;99.90
20376;DHT22;10347;51.828;6.466;2023-07-28T12:42:47;24.50;99.90
20376;DHT22;10347;51.828;6.466;2023-07-28T12:45:14;24.60;99.90
20376;DHT22;10347;51.828;6.466;2023-07-28T12:47:42;24.60;99.90
20376;DHT22;10347;51.828;6.466;2023-07-28T12:50:08;24.60;99.90
20376;DHT22;10347;51.828;6.466;2023-07-28T12:52:33;24.70;99.90
20376;DHT22;10347;51.828;6.466;2023-07-28T12:54:59;24.70;99.90
20376;DHT22;10347;51.828;6.466;2023-07-28T12:57:24;24.80;99.90
20376;DHT22;10347;51.828;6.466;2023-07-28T12:59:50;24.80;99.90
20376;DHT22;10347;51.828;6.466;2023-07-28T13:02:17;24.80;99.90
20376;DHT22;10347;51.828;6.466;2023-07-28T13:04:43;24.80;99.90
20376;DHT22;10347;51.828;6.466;2023-07-28T13:07:08;24.90;99.90
20376;DHT22;10347;51.828;6.466;2023-07-28T13:09:34;24.90;99.90
20376;DHT22;10347;51.828;6.466;2023-07-28T13:11:59;25.00;99.90
20376;DHT22;10347;51.828;6.466;2023-07-28T13:14:25;25.10;99.90
20376;DHT22;10347;51.828;6.466;2023-07-28T13:16:50;25.10;99.90
20376;DHT22;10347;51.828;6.466;2023-07-28T13:19:16;25.10;99.90
20376;DHT22;10347;51.828;6.466;2023-07-28T13:21:42;25.10;99.90
20376;DHT22;10347;51.828;6.466;2023-07-28T13:24:07;25.20;99.90
20376;DHT22;10347;51.828;6.466;2023-07-28T13:26:33;25.20;99.90
20376;DHT22;10347;51.828;6.466;2023-07-28T13:28:58;25.30;99.90
20376;DHT22;10347;51.828;6.466;2023-07-28T13:31:27;25.30;99.90
20376;DHT22;10347;51.828;6.466;2023-07-28T13:33:53;25.30;99.90
20376;DHT22;10347;51.828;6.466;2023-07-28T13:36:18;25.40;99.90
20376;DHT22;10347;51.828;6.466;2023-07-28T13:38:44;25.50;99.90
20376;DHT22;10347;51.828;6.466;2023-07-28T13:41:10;25.50;99.90
20376;DHT22;10347;51.828;6.466;2023-07-28T13:43:35;25.60;99.90
20376;DHT22;10347;51.828;6.466;2023-07-28T13:46:03;25.60;99.90
20376;DHT22;10347;51.828;6.466;2023-07-28T13:48:30;25.60;99.90
20376;DHT22;10347;51.828;6.466;2023-07-28T13:50:55;25.70;99.90
20376;DHT22;10347;51.828;6.466;2023-07-28T13:53:22;25.80;99.90
20376;DHT22;10347;51.828;6.466;2023-07-28T13:55:48;25.80;99.90
20376;DHT22;10347;51.828;6.466;2023-07-28T13:58:13;25.80;99.90
20376;DHT22;10347;51.828;6.466;2023-07-28T14:00:39;25.90;99.90
20376;DHT22;10347;51.828;6.466;2023-07-28T14:03:04;25.90;99.90
20376;DHT22;10347;51.828;6.466;2023-07-28T14:05:30;26.00;99.90
20376;DHT22;10347;51.828;6.466;2023-07-28T14:07:56;26.00;99.90
20376;DHT22;10347;51.828;6.466;2023-07-28T14:10:21;26.10;99.90
20376;DHT22;10347;51.828;6.466;2023-07-28T14:12:47;26.10;99.90
20376;DHT22;10347;51.828;6.466;2023-07-28T14:15:12;26.20;99.90
20376;DHT22;10347;51.828;6.466;2023-07-28T14:17:38;26.20;99.90
20376;DHT22;10347;51.828;6.466;2023-07-28T14:20:04;26.20;99.90
20376;DHT22;10347;51.828;6.466;2023-07-28T14:22:29;26.30;99.90
20376;DHT22;10347;51.828;6.466;2023-07-28T14:24:55;26.40;99.90
20376;DHT22;10347;51.828;6.466;2023-07-28T14:27:20;26.40;99.90
20376;DHT22;10347;51.828;6.466;2023-07-28T14:29:46;26.40;99.90
20376;DHT22;10347;51.828;6.466;2023-07-28T14:32:11;26.40;99.90
20376;DHT22;10347;51.828;6.466;2023-07-28T14:34:37;26.40;99.90
20376;DHT22;10347;51.828;6.466;2023-07-28T14:37:05;26.40;99.90
20376;DHT22;10347;51.828;6.466;2023-07-28T14:39:34;26.50;99.90
20376;DHT22;10347;51.828;6.466;2023-07-28T14:41:59;26.60;99.90
20376;DHT22;10347;51.828;6.466;2023-07-28T14:44:25;26.60;99.90
20376;DHT22;10347;51.828;6.466;2023-07-28T14:46:51;26.60;99.90
20376;DHT22;10347;51.828;6.466;2023-07-28T14:49:17;26.60;99.90
20376;DHT22;10347;51.828;6.466;2023-07-28T14:51:42;26.70;99.90
20376;DHT22;10347;51.828;6.466;2023-07-28T14:54:08;26.70;99.90
20376;DHT22;10347;51.828;6.466;2023-07-28T14:56:33;26.80;99.90
20376;DHT22;10347;51.828;6.466;2023-07-28T14:58:59;26.70;99.90
20376;DHT22;10347;51.828;6.466;2023-07-28T15:01:29;26.80;99.90
20376;DHT22;10347;51.828;6.466;2023-07-28T15:03:54;26.80;99.90
20376;DHT22;10347;51.828;6.466;2023-07-28T15:06:20;26.80;99.90
20376;DHT22;10347;51.828;6.466;2023-07-28T15:08:45;26.90;99.90
20376;DHT22;10347;51.828;6.466;2023-07-28T15:11:11;26.90;99.90
20376;DHT22;10347;51.828;6.466;2023-07-28T15:13:37;26.90;99.90
20376;DHT22;10347;51.828;6.466;2023-07-28T15:16:02;26.90;99.90
20376;DHT22;10347;51.828;6.466;2023-07-28T15:18:28;26.90;99.90
20376;DHT22;10347;51.828;6.466;2023-07-28T15:20:53;26.90;99.90
20376;DHT22;10347;51.828;6.466;2023-07-28T15:23:24;26.90;99.90
20376;DHT22;10347;51.828;6.466;2023-07-28T15:25:50;27.00;99.90
20376;DHT22;10347;51.828;6.466;2023-07-28T15:28:18;27.00;99.90
20376;DHT22;10347;51.828;6.466;2023-07-28T15:30:44;27.00;99.90
20376;DHT22;10347;51.828;6.466;2023-07-28T15:33:11;27.00;99.90